createdAt,value
2022-12-31T00:02:35.000Z,18.52
2022-12-31T00:12:34.000Z,19.36
2022-12-31T00:17:35.000Z,19.36
2022-12-31T00:22:35.000Z,18.97
2022-12-31T00:27:35.000Z,18.08
2022-12-31T00:32:35.000Z,18.73
2022-12-31T00:42:35.000Z,18.97
2022-12-31T00:47:34.000Z,18.85
2022-12-31T00:52:35.000Z,18.51
2022-12-31T00:57:35.000Z,18.56
2022-12-31T01:02:35.000Z,18.35
2022-12-31T01:07:34.000Z,17.97
2022-12-31T01:12:35.000Z,18.28
2022-12-31T01:17:35.000Z,18.28
2022-12-31T01:22:35.000Z,18
2022-12-31T01:27:35.000Z,18.12
2022-12-31T01:32:35.000Z,17.27
2022-12-31T01:37:35.000Z,17.31
2022-12-31T01:42:35.000Z,16.71
2022-12-31T01:47:35.000Z,16.19
2022-12-31T01:52:35.000Z,17.53
2022-12-31T01:57:34.000Z,16.86
2022-12-31T02:02:35.000Z,16.35
2022-12-31T02:07:34.000Z,16.63
2022-12-31T02:12:35.000Z,15.98
2022-12-31T02:17:34.000Z,15.81
2022-12-31T02:22:35.000Z,16.8
2022-12-31T02:27:34.000Z,16.5
2022-12-31T02:32:34.000Z,16.5
2022-12-31T02:37:34.000Z,16.54
2022-12-31T02:42:35.000Z,16.31
2022-12-31T02:47:35.000Z,15.28
2022-12-31T02:52:35.000Z,14.36
2022-12-31T02:57:34.000Z,14.28
2022-12-31T03:02:35.000Z,15.89
2022-12-31T03:07:35.000Z,16.5
2022-12-31T03:12:35.000Z,16.18
2022-12-31T03:17:35.000Z,15.43
2022-12-31T03:22:35.000Z,15.58
2022-12-31T03:27:34.000Z,16.02
2022-12-31T03:32:35.000Z,15.96
2022-12-31T03:37:35.000Z,15.43
2022-12-31T03:42:34.000Z,16.49
2022-12-31T03:52:34.000Z,16.62
2022-12-31T03:57:34.000Z,15.73
2022-12-31T04:02:39.000Z,15.73
2022-12-31T04:07:34.000Z,15.49
2022-12-31T04:12:35.000Z,14.87
2022-12-31T04:17:35.000Z,15.77
2022-12-31T04:22:35.000Z,15.61
2022-12-31T04:27:35.000Z,15.59
2022-12-31T04:32:34.000Z,16.53
2022-12-31T04:37:35.000Z,15.47
2022-12-31T04:42:34.000Z,16.92
2022-12-31T04:47:34.000Z,19.02
2022-12-31T04:52:35.000Z,16.51
2022-12-31T04:57:34.000Z,15.28
2022-12-31T05:07:35.000Z,15.99
2022-12-31T05:12:34.000Z,16.25
2022-12-31T05:17:35.000Z,17.38
2022-12-31T05:22:34.000Z,15.86
2022-12-31T05:27:35.000Z,15.86
2022-12-31T05:32:35.000Z,15.65
2022-12-31T05:37:35.000Z,15.65
2022-12-31T05:42:34.000Z,15.06
2022-12-31T05:47:34.000Z,15.26
2022-12-31T05:52:35.000Z,15.45
2022-12-31T05:57:34.000Z,15.3
2022-12-31T06:02:34.000Z,15.89
2022-12-31T06:12:34.000Z,17.46
2022-12-31T06:17:35.000Z,17
2022-12-31T06:22:34.000Z,17.76
2022-12-31T06:27:35.000Z,18.39
2022-12-31T06:32:34.000Z,18.46
2022-12-31T06:37:35.000Z,19
2022-12-31T06:42:34.000Z,18.33
2022-12-31T06:47:35.000Z,18.29
2022-12-31T06:52:35.000Z,18.29
2022-12-31T06:57:34.000Z,17.35
2022-12-31T07:02:35.000Z,17.72
2022-12-31T07:07:35.000Z,17.06
2022-12-31T07:12:35.000Z,17.3
2022-12-31T07:17:35.000Z,16.04
2022-12-31T07:22:34.000Z,16.13
2022-12-31T07:27:35.000Z,15.75
2022-12-31T07:32:34.000Z,16.26
2022-12-31T07:37:35.000Z,16.57
2022-12-31T07:42:34.000Z,16.03
2022-12-31T07:47:35.000Z,14.66
2022-12-31T07:52:34.000Z,13.81
2022-12-31T07:57:35.000Z,13.11
2022-12-31T08:02:35.000Z,13.48
2022-12-31T08:07:35.000Z,13.48
2022-12-31T08:12:35.000Z,12.34
2022-12-31T08:17:34.000Z,12.63
2022-12-31T08:22:35.000Z,15.35
2022-12-31T08:27:35.000Z,12.09
2022-12-31T08:32:35.000Z,11.8
2022-12-31T08:37:35.000Z,11.72
2022-12-31T08:42:34.000Z,11.64
2022-12-31T08:47:35.000Z,10.88
2022-12-31T08:52:35.000Z,10.86
2022-12-31T08:57:35.000Z,10.39
2022-12-31T09:02:34.000Z,10.8
2022-12-31T09:07:35.000Z,10.16
2022-12-31T09:12:34.000Z,11.04
2022-12-31T09:17:35.000Z,10.79
2022-12-31T09:22:35.000Z,10.79
2022-12-31T09:27:38.000Z,11.46
2022-12-31T09:32:35.000Z,11.2
2022-12-31T09:37:35.000Z,11.11
2022-12-31T09:42:34.000Z,10.91
2022-12-31T09:47:35.000Z,10.7
2022-12-31T09:52:35.000Z,10.51
2022-12-31T09:57:35.000Z,10.88
2022-12-31T10:02:35.000Z,10.08
2022-12-31T10:07:35.000Z,11.31
2022-12-31T10:12:35.000Z,12.41
2022-12-31T10:17:35.000Z,12.41
2022-12-31T10:22:35.000Z,13.04
2022-12-31T10:27:34.000Z,13.16
2022-12-31T10:32:41.000Z,12.68
2022-12-31T10:37:34.000Z,12.76
2022-12-31T10:42:35.000Z,12.21
2022-12-31T10:47:35.000Z,11.96
2022-12-31T10:52:34.000Z,11.72
2022-12-31T10:57:35.000Z,10.33
2022-12-31T11:02:34.000Z,10.68
2022-12-31T11:07:35.000Z,10.77
2022-12-31T11:12:34.000Z,10.8
2022-12-31T11:17:34.000Z,10.42
2022-12-31T11:22:34.000Z,10.46
2022-12-31T11:27:35.000Z,10.43
2022-12-31T11:32:34.000Z,10.43
2022-12-31T11:37:35.000Z,10.54
2022-12-31T11:42:34.000Z,10.8
2022-12-31T11:47:35.000Z,10.96
2022-12-31T11:52:35.000Z,13.08
2022-12-31T11:57:35.000Z,11.15
2022-12-31T12:02:35.000Z,10.7
2022-12-31T12:07:35.000Z,11.89
2022-12-31T12:12:34.000Z,10.65
2022-12-31T12:17:34.000Z,10.98
2022-12-31T12:22:34.000Z,10.14
2022-12-31T12:32:35.000Z,11.58
2022-12-31T12:37:35.000Z,15.43
2022-12-31T12:42:35.000Z,12.42
2022-12-31T12:47:34.000Z,11.54
2022-12-31T12:52:34.000Z,13.02
2022-12-31T12:57:35.000Z,12.43
2022-12-31T13:02:34.000Z,13.54
2022-12-31T13:07:35.000Z,11.9
2022-12-31T13:12:34.000Z,12.44
2022-12-31T13:17:35.000Z,11.9
2022-12-31T13:22:35.000Z,11.02
2022-12-31T13:27:34.000Z,11.02
2022-12-31T13:32:35.000Z,11.28
2022-12-31T13:47:35.000Z,10.39
2022-12-31T13:52:34.000Z,10.31
2022-12-31T13:57:35.000Z,10.44
2022-12-31T14:02:35.000Z,11.65
2022-12-31T14:07:44.000Z,12.55
2022-12-31T14:12:35.000Z,14.1
2022-12-31T14:17:35.000Z,14.77
2022-12-31T14:27:35.000Z,16.44
2022-12-31T14:32:35.000Z,16.58
2022-12-31T14:37:35.000Z,16.58
2022-12-31T14:42:34.000Z,15.76
2022-12-31T14:47:35.000Z,16.2
2022-12-31T14:52:34.000Z,16.07
2022-12-31T14:57:35.000Z,15.48
2022-12-31T15:02:34.000Z,17.97
2022-12-31T15:07:35.000Z,18.98
2022-12-31T15:12:34.000Z,21.29
2022-12-31T15:17:35.000Z,21.26
2022-12-31T15:22:35.000Z,21.52
2022-12-31T15:27:35.000Z,22.16
2022-12-31T15:32:34.000Z,23.3
2022-12-31T15:37:35.000Z,24.34
2022-12-31T15:42:48.000Z,24.06
2022-12-31T15:47:35.000Z,24.06
2022-12-31T15:52:34.000Z,23.62
2022-12-31T15:57:35.000Z,23.18
2022-12-31T16:02:36.000Z,22.44
2022-12-31T16:07:35.000Z,21.17
2022-12-31T16:12:43.000Z,19.01
2022-12-31T16:17:34.000Z,14.22
2022-12-31T16:22:35.000Z,15.04
2022-12-31T16:27:35.000Z,16.38
2022-12-31T16:32:34.000Z,17.84
2022-12-31T16:37:35.000Z,20.64
2022-12-31T16:42:34.000Z,25.01
2022-12-31T16:47:35.000Z,21.35
2022-12-31T16:52:35.000Z,19.21
2022-12-31T16:57:35.000Z,18.56
2022-12-31T17:02:35.000Z,18.56
2022-12-31T17:07:34.000Z,18.09
2022-12-31T17:12:35.000Z,17.83
2022-12-31T17:17:35.000Z,17.2
2022-12-31T17:22:46.000Z,17.45
2022-12-31T17:27:34.000Z,18.07
2022-12-31T17:32:35.000Z,16.99
2022-12-31T17:37:34.000Z,16.33
2022-12-31T17:42:35.000Z,15.75
2022-12-31T17:47:34.000Z,15.83
2022-12-31T17:52:35.000Z,14.93
2022-12-31T17:57:35.000Z,14.27
2022-12-31T18:02:36.000Z,13.68
2022-12-31T18:07:35.000Z,13.47
2022-12-31T18:12:35.000Z,11.65
2022-12-31T18:17:35.000Z,11.65
2022-12-31T18:22:34.000Z,12.34
2022-12-31T18:27:35.000Z,11.63
2022-12-31T18:32:34.000Z,11.55
2022-12-31T18:37:35.000Z,10.85
2022-12-31T18:42:35.000Z,10.13
2022-12-31T18:47:35.000Z,10.5
2022-12-31T18:52:35.000Z,11.63
2022-12-31T19:07:35.000Z,15
2022-12-31T19:12:34.000Z,14.88
2022-12-31T19:17:35.000Z,14.14
2022-12-31T19:22:35.000Z,14.26
2022-12-31T19:27:35.000Z,17.74
2022-12-31T19:32:35.000Z,13.34
2022-12-31T19:37:35.000Z,10.88
2022-12-31T19:42:34.000Z,10.04
2022-12-31T19:47:34.000Z,11.34
2022-12-31T19:52:35.000Z,9.72
2022-12-31T19:57:35.000Z,8.61
2022-12-31T20:02:35.000Z,8.24
2022-12-31T20:07:37.000Z,7.92
2022-12-31T20:12:34.000Z,7.44
2022-12-31T20:17:35.000Z,7.44
2022-12-31T20:22:35.000Z,7.97
2022-12-31T20:27:35.000Z,7.83
2022-12-31T20:32:34.000Z,9.18
2022-12-31T20:37:35.000Z,8.39
2022-12-31T20:42:34.000Z,7.95
2022-12-31T20:47:35.000Z,8.18
2022-12-31T20:52:34.000Z,9.09
2022-12-31T20:57:43.000Z,8.86
2022-12-31T21:02:51.000Z,8.75
2022-12-31T21:07:35.000Z,9.43
2022-12-31T21:12:35.000Z,9.58
2022-12-31T21:17:35.000Z,9.98
2022-12-31T21:22:35.000Z,19.95
2022-12-31T21:27:35.000Z,14.82
2022-12-31T21:32:34.000Z,14.82
2022-12-31T21:38:09.000Z,12.94
2022-12-31T21:42:34.000Z,11.52
2022-12-31T21:47:47.000Z,13.06
2022-12-31T21:52:35.000Z,16.11
2022-12-31T21:57:35.000Z,19.05
2022-12-31T22:02:35.000Z,19.86
2022-12-31T22:12:35.000Z,42.36
2022-12-31T22:17:34.000Z,37.34
2022-12-31T22:22:35.000Z,23.3
2022-12-31T22:27:39.000Z,19.32
2022-12-31T22:32:35.000Z,18.06
2022-12-31T22:38:06.000Z,15.95
2022-12-31T22:42:34.000Z,15.16
2022-12-31T22:47:35.000Z,18.38
2022-12-31T22:52:34.000Z,18.38
2022-12-31T22:57:35.000Z,18.14
2022-12-31T23:02:34.000Z,16.39
2022-12-31T23:07:35.000Z,15.45
2022-12-31T23:12:34.000Z,14.08
2022-12-31T23:17:41.000Z,13.97
2022-12-31T23:22:34.000Z,13.49
2022-12-31T23:27:35.000Z,13.5
2022-12-31T23:32:35.000Z,13.31
2022-12-31T23:42:34.000Z,13.97
2022-12-31T23:47:35.000Z,13.25
2022-12-31T23:57:34.000Z,13.27
